createdAt,value
2018-09-29T00:02:15.430Z,9.43
2018-09-29T00:04:45.445Z,8.20
2018-09-29T00:24:37.023Z,8.40
2018-09-29T00:27:06.844Z,8.77
2018-09-29T00:29:36.658Z,8.90
2018-09-29T00:49:28.499Z,8.75
2018-09-29T00:51:58.204Z,9.43
2018-09-29T00:54:27.813Z,9.43
2018-09-29T00:56:57.869Z,9.47
2018-09-29T00:59:27.611Z,9.73
2018-09-29T01:01:57.272Z,10.65
2018-09-29T01:04:27.335Z,11.10
2018-09-29T01:06:57.080Z,11.60
2018-09-29T01:09:26.767Z,11.88
2018-09-29T01:11:56.732Z,11.47
2018-09-29T01:14:26.491Z,11.30
2018-09-29T01:16:56.460Z,11.43
2018-09-29T01:19:26.388Z,11.13
2018-09-29T01:21:56.115Z,11.60
2018-09-29T01:24:25.814Z,11.90
2018-09-29T01:26:55.835Z,11.03
2018-09-29T01:29:25.486Z,11.17
2018-09-29T01:31:55.412Z,11.20
2018-09-29T01:51:47.042Z,10.90
2018-09-29T01:54:16.793Z,10.80
2018-09-29T01:56:46.394Z,10.83
2018-09-29T01:59:15.989Z,11.90
2018-09-29T02:01:45.715Z,12.03
2018-09-29T02:04:15.505Z,12.73
2018-09-29T02:06:45.569Z,12.03
2018-09-29T02:09:15.219Z,12.87
2018-09-29T02:11:45.164Z,12.23
2018-09-29T02:14:15.558Z,12.45
2018-09-29T02:16:45.286Z,12.65
2018-09-29T02:19:15.061Z,14.47
2018-09-29T02:21:44.949Z,14.77
2018-09-29T02:24:14.839Z,15.83
2018-09-29T02:26:44.752Z,14.97
2018-09-29T02:29:14.564Z,14.47
2018-09-29T02:31:44.382Z,14.05
2018-09-29T02:34:14.107Z,12.87
2018-09-29T02:54:06.586Z,10.70
2018-09-29T02:56:36.249Z,10.17
2018-09-29T02:59:05.931Z,9.93
2018-09-29T03:01:35.627Z,9.50
2018-09-29T03:04:05.204Z,9.33
2018-09-29T03:06:34.772Z,8.90
2018-09-29T03:09:06.301Z,9.40
2018-09-29T03:11:35.803Z,10.20
2018-09-29T03:14:05.677Z,9.88
2018-09-29T03:16:35.218Z,9.20
2018-09-29T03:19:04.957Z,8.63
2018-09-29T03:21:34.408Z,9.20
2018-09-29T03:24:04.329Z,9.40
2018-09-29T03:26:33.854Z,9.17
2018-09-29T03:29:03.557Z,9.70
2018-09-29T03:31:33.398Z,9.23
2018-09-29T03:34:03.115Z,9.20
2018-09-29T03:36:32.615Z,8.53
2018-09-29T03:39:02.397Z,10.30
2018-09-29T03:41:31.998Z,9.97
2018-09-29T03:44:01.806Z,9.17
2018-09-29T03:46:31.749Z,9.43
2018-09-29T03:49:01.503Z,9.37
2018-09-29T03:51:31.243Z,9.40
2018-09-29T03:54:01.536Z,9.50
2018-09-29T03:56:31.280Z,9.50
2018-09-29T03:59:01.156Z,9.77
2018-09-29T04:01:31.178Z,9.75
2018-09-29T04:04:01.133Z,10.45
2018-09-29T04:06:30.918Z,11.43
2018-09-29T04:09:00.954Z,12.35
2018-09-29T04:11:30.840Z,10.77
2018-09-29T04:14:01.258Z,12.90
2018-09-29T04:16:30.894Z,12.37
2018-09-29T04:19:00.809Z,12.10
2018-09-29T04:21:35.769Z,12.63
2018-09-29T04:24:05.683Z,12.68
2018-09-29T04:26:35.389Z,12.00
2018-09-29T04:29:05.225Z,11.70
2018-09-29T04:31:34.691Z,13.13
2018-09-29T04:34:04.636Z,12.00
2018-09-29T04:53:56.703Z,12.00
2018-09-29T04:56:26.602Z,12.60
2018-09-29T04:58:56.388Z,12.80
2018-09-29T05:01:26.323Z,12.35
2018-09-29T05:03:56.058Z,12.63
2018-09-29T05:06:26.092Z,12.47
2018-09-29T05:08:56.159Z,11.68
2018-09-29T05:11:25.963Z,11.73
2018-09-29T05:13:55.842Z,11.50
2018-09-29T05:16:25.935Z,12.50
2018-09-29T05:18:55.643Z,11.97
2018-09-29T05:21:25.550Z,12.57
2018-09-29T05:23:55.677Z,12.13
2018-09-29T05:26:25.590Z,11.43
2018-09-29T05:46:17.581Z,11.33
2018-09-29T05:48:47.330Z,10.67
2018-09-29T05:51:17.184Z,11.30
2018-09-29T05:53:47.088Z,11.07
2018-09-29T05:56:16.939Z,12.10
2018-09-29T05:58:46.703Z,11.73
2018-09-29T06:01:16.641Z,12.90
2018-09-29T06:21:08.102Z,12.27
2018-09-29T06:23:38.054Z,11.97
2018-09-29T06:26:07.863Z,11.13
2018-09-29T06:28:37.578Z,11.23
2018-09-29T06:31:07.601Z,12.30
2018-09-29T06:33:37.163Z,11.73
2018-09-29T06:36:06.725Z,12.63
2018-09-29T06:55:58.367Z,14.37
2018-09-29T07:15:50.141Z,13.03
2018-09-29T07:18:19.955Z,13.10
2018-09-29T07:38:11.573Z,14.27
2018-09-29T07:40:41.467Z,37.27
2018-09-29T07:43:11.092Z,19.73
2018-09-29T07:45:41.036Z,37.20
2018-09-29T07:48:10.662Z,14.07
2018-09-29T07:50:40.001Z,16.57
2018-09-29T07:53:09.481Z,13.87
2018-09-29T07:55:39.428Z,12.93
2018-09-29T07:58:09.233Z,12.73
2018-09-29T08:00:39.207Z,13.20
2018-09-29T08:03:08.930Z,13.57
2018-09-29T08:05:38.579Z,13.40
2018-09-29T08:25:31.155Z,14.60
2018-09-29T08:48:16.622Z,14.30
2018-09-29T09:08:09.858Z,12.60
2018-09-29T09:10:39.841Z,14.63
2018-09-29T09:13:09.479Z,13.17
2018-09-29T09:15:39.223Z,13.13
2018-09-29T09:18:09.383Z,13.03
2018-09-29T09:20:38.924Z,14.03
2018-09-29T09:23:08.612Z,13.40
2018-09-29T09:25:38.747Z,12.50
2018-09-29T09:28:08.679Z,13.33
2018-09-29T09:30:38.270Z,12.00
2018-09-29T09:33:08.238Z,11.53
2018-09-29T09:35:38.000Z,11.63
2018-09-29T09:38:07.757Z,10.90
2018-09-29T09:40:37.568Z,10.93
2018-09-29T10:00:34.526Z,8.60
2018-09-29T10:03:15.725Z,8.63
2018-09-29T10:05:45.292Z,8.57
2018-09-29T10:08:15.201Z,8.40
2018-09-29T10:10:44.901Z,7.23
2018-09-29T10:13:14.722Z,6.60
2018-09-29T10:15:44.445Z,8.10
2018-09-29T10:18:14.883Z,6.57
2018-09-29T10:38:06.887Z,6.43
2018-09-29T10:40:36.678Z,7.10
2018-09-29T10:43:06.408Z,6.03
2018-09-29T10:45:36.374Z,6.63
2018-09-29T10:48:06.162Z,6.90
2018-09-29T11:07:58.152Z,6.97
2018-09-29T11:10:28.193Z,7.70
2018-09-29T11:12:58.180Z,6.27
2018-09-29T11:15:27.851Z,7.93
2018-09-29T11:17:57.754Z,7.67
2018-09-29T11:20:28.204Z,6.37
2018-09-29T11:22:57.865Z,6.30
2018-09-29T11:25:27.858Z,6.93
2018-09-29T11:27:57.637Z,6.20
2018-09-29T11:30:27.159Z,6.10
2018-09-29T11:32:57.009Z,6.70
2018-09-29T11:52:49.505Z,6.33
2018-09-29T12:12:41.927Z,6.27
2018-09-29T12:15:11.416Z,5.73
2018-09-29T12:17:41.081Z,5.67
2018-09-29T12:49:07.871Z,4.40
2018-09-29T12:51:38.352Z,6.10
2018-09-29T12:54:08.370Z,5.30
2018-09-29T13:13:59.732Z,4.10
2018-09-29T13:16:29.447Z,4.53
2018-09-29T13:18:59.459Z,4.27
2018-09-29T13:21:29.076Z,4.67
2018-09-29T13:23:58.620Z,4.70
2018-09-29T13:26:28.936Z,3.93
2018-09-29T13:46:21.053Z,3.50
2018-09-29T14:06:13.611Z,48.63
2018-09-29T14:08:43.427Z,5.00
2018-09-29T14:11:13.258Z,4.30
2018-09-29T14:31:05.435Z,4.03
2018-09-29T14:33:35.043Z,4.63
2018-09-29T14:36:04.595Z,4.20
2018-09-29T14:38:34.065Z,4.50
2018-09-29T14:41:03.522Z,4.17
2018-09-29T14:43:32.858Z,4.50
2018-09-29T14:46:02.524Z,4.23
2018-09-29T14:48:32.015Z,7.73
2018-09-29T14:51:01.869Z,5.57
2018-09-29T15:10:54.065Z,5.60
2018-09-29T15:13:23.642Z,5.47
2018-09-29T15:33:15.423Z,6.60
2018-09-29T15:53:08.163Z,7.60
2018-09-29T15:55:38.197Z,7.23
2018-09-29T15:58:07.864Z,7.20
2018-09-29T16:00:37.653Z,6.37
2018-09-29T16:03:07.623Z,7.30
2018-09-29T16:05:37.109Z,7.10
2018-09-29T16:08:06.625Z,7.00
2018-09-29T16:27:58.206Z,10.70
2018-09-29T16:30:27.663Z,11.30
2018-09-29T16:50:20.271Z,10.80
2018-09-29T16:52:50.042Z,10.50
2018-09-29T17:12:41.624Z,12.70
2018-09-29T17:15:11.138Z,13.87
2018-09-29T17:17:41.029Z,13.27
2018-09-29T17:20:11.063Z,13.87
2018-09-29T17:22:40.537Z,14.83
2018-09-29T17:25:10.194Z,14.60
2018-09-29T17:27:40.460Z,13.33
2018-09-29T17:30:10.498Z,14.63
2018-09-29T17:50:02.906Z,14.30
2018-09-29T17:52:32.268Z,42.37
2018-09-29T17:55:02.019Z,16.60
2018-09-29T17:57:31.993Z,15.60
2018-09-29T18:00:01.896Z,15.40
2018-09-29T18:02:31.425Z,15.70
2018-09-29T18:05:01.244Z,15.30
2018-09-29T18:07:31.052Z,14.63
2018-09-29T18:10:00.534Z,15.53
2018-09-29T18:29:52.407Z,13.17
2018-09-29T18:32:21.989Z,13.37
2018-09-29T18:52:14.325Z,13.90
2018-09-29T18:54:44.033Z,13.53
2018-09-29T18:57:14.055Z,14.30
2018-09-29T18:59:44.421Z,14.77
2018-09-29T19:02:14.141Z,14.90
2018-09-29T19:04:43.906Z,14.17
2018-09-29T19:07:13.860Z,15.17
2018-09-29T19:27:05.680Z,17.80
2018-09-29T19:29:35.416Z,17.10
2018-09-29T19:32:05.265Z,16.57
2018-09-29T19:34:35.381Z,17.83
2018-09-29T19:37:05.053Z,18.53
2018-09-29T19:39:34.641Z,18.60
2018-09-29T19:42:04.535Z,18.37
2018-09-29T19:44:34.100Z,16.80
2018-09-29T19:47:03.871Z,18.23
2018-09-29T20:06:56.478Z,21.23
2018-09-29T20:26:48.923Z,23.27
2018-09-29T20:46:41.294Z,23.20
2018-09-29T20:49:11.062Z,24.40
2018-09-29T20:51:40.883Z,25.27
2018-09-29T20:54:10.498Z,24.33
2018-09-29T20:56:40.333Z,24.93
2018-09-29T20:59:10.057Z,24.17
2018-09-29T21:01:39.864Z,24.90
2018-09-29T21:04:09.563Z,24.67
2018-09-29T21:06:39.365Z,23.87
2018-09-29T21:09:09.662Z,25.47
2018-09-29T21:11:39.511Z,24.93
2018-09-29T21:14:09.323Z,24.90
2018-09-29T21:16:39.418Z,24.93
2018-09-29T21:19:09.449Z,25.17
2018-09-29T21:21:39.174Z,24.93
2018-09-29T21:24:09.130Z,26.37
2018-09-29T21:26:39.113Z,24.83
2018-09-29T21:29:08.964Z,25.23
2018-09-29T21:31:39.075Z,25.60
2018-09-29T21:34:08.824Z,27.23
2018-09-29T21:36:38.553Z,25.20
2018-09-29T21:39:09.219Z,25.93
2018-09-29T21:41:39.218Z,25.57
2018-09-29T21:44:08.942Z,27.07
2018-09-29T21:46:38.971Z,26.43
2018-09-29T21:49:08.718Z,28.10
2018-09-29T21:51:38.555Z,27.40
2018-09-29T21:54:08.627Z,26.20
2018-09-29T21:56:38.378Z,26.80
2018-09-29T21:59:08.193Z,26.80
2018-09-29T22:01:38.266Z,26.90
2018-09-29T22:04:08.104Z,26.40
2018-09-29T22:06:38.119Z,26.67
2018-09-29T22:09:09.023Z,28.13
2018-09-29T22:11:38.909Z,27.40
2018-09-29T22:14:08.729Z,26.77
2018-09-29T22:16:38.725Z,26.10
2018-09-29T22:19:08.545Z,27.27
2018-09-29T22:21:38.316Z,27.77
2018-09-29T22:24:08.410Z,27.53
2018-09-29T22:26:38.151Z,28.60
2018-09-29T22:29:07.863Z,28.97
2018-09-29T22:31:37.794Z,26.90
2018-09-29T22:34:07.593Z,28.00
2018-09-29T22:36:37.412Z,28.67
2018-09-29T22:39:09.667Z,28.77
2018-09-29T22:41:39.586Z,27.57
2018-09-29T22:44:09.442Z,27.80
2018-09-29T22:46:39.332Z,27.40
2018-09-29T22:49:09.090Z,28.53
2018-09-29T22:51:39.041Z,27.00
2018-09-29T22:54:09.301Z,28.47
2018-09-29T22:56:39.244Z,27.80
2018-09-29T22:59:08.976Z,29.63
2018-09-29T23:01:38.894Z,29.73
2018-09-29T23:04:08.784Z,28.93
2018-09-29T23:06:38.514Z,28.37
2018-09-29T23:09:10.732Z,28.00
2018-09-29T23:11:40.569Z,28.57
2018-09-29T23:14:10.391Z,29.03
2018-09-29T23:16:40.182Z,29.93
2018-09-29T23:19:10.101Z,28.93
2018-09-29T23:21:39.991Z,29.83
2018-09-29T23:24:10.281Z,29.00
2018-09-29T23:26:39.903Z,29.03
2018-09-29T23:29:09.685Z,30.10
2018-09-29T23:31:39.642Z,30.93
2018-09-29T23:34:09.495Z,29.83
2018-09-29T23:36:39.158Z,29.53
2018-09-29T23:39:10.381Z,30.43
2018-09-29T23:41:40.134Z,29.77
2018-09-29T23:44:09.964Z,30.27
2018-09-29T23:46:39.746Z,30.87
2018-09-29T23:49:09.524Z,30.43
2018-09-29T23:51:39.454Z,31.67
2018-09-29T23:54:09.647Z,31.50
2018-09-29T23:56:39.569Z,32.83
2018-09-29T23:59:09.508Z,30.93
